sensor_id;sensor_type;location;lat;lon;timestamp;temperature;humidity
9425;DHT22;17139;52.140;11.636;2022-11-11T00:00:40;7.20;62.70
9425;DHT22;17139;52.140;11.636;2022-11-11T00:03:07;7.10;62.70
9425;DHT22;17139;52.140;11.636;2022-11-11T00:05:34;7.10;62.80
9425;DHT22;17139;52.140;11.636;2022-11-11T00:08:01;7.10;62.80
9425;DHT22;17139;52.140;11.636;2022-11-11T00:10:30;7.10;63.50
9425;DHT22;17139;52.140;11.636;2022-11-11T00:13:00;7.00;62.70
9425;DHT22;17139;52.140;11.636;2022-11-11T00:15:28;7.00;62.80
9425;DHT22;17139;52.140;11.636;2022-11-11T00:17:57;7.00;62.80
9425;DHT22;17139;52.140;11.636;2022-11-11T00:20:42;7.00;62.90
9425;DHT22;17139;52.140;11.636;2022-11-11T00:23:27;6.90;62.90
9425;DHT22;17139;52.140;11.636;2022-11-11T00:26:13;6.90;62.90
9425;DHT22;17139;52.140;11.636;2022-11-11T00:28:41;6.90;63.70
9425;DHT22;17139;52.140;11.636;2022-11-11T00:31:10;6.80;62.90
9425;DHT22;17139;52.140;11.636;2022-11-11T00:33:39;6.80;63.00
9425;DHT22;17139;52.140;11.636;2022-11-11T00:36:06;6.80;62.90
9425;DHT22;17139;52.140;11.636;2022-11-11T00:38:32;6.80;62.90
9425;DHT22;17139;52.140;11.636;2022-11-11T00:41:14;6.80;62.90
9425;DHT22;17139;52.140;11.636;2022-11-11T00:43:41;6.70;62.80
9425;DHT22;17139;52.140;11.636;2022-11-11T00:46:08;7.00;63.00
9425;DHT22;17139;52.140;11.636;2022-11-11T00:48:55;7.00;62.30
9425;DHT22;17139;52.140;11.636;2022-11-11T00:51:40;7.50;62.10
9425;DHT22;17139;52.140;11.636;2022-11-11T00:54:08;7.30;61.60
9425;DHT22;17139;52.140;11.636;2022-11-11T00:56:35;7.10;62.10
9425;DHT22;17139;52.140;11.636;2022-11-11T00:59:03;7.00;62.30
9425;DHT22;17139;52.140;11.636;2022-11-11T01:01:30;6.90;62.60
9425;DHT22;17139;52.140;11.636;2022-11-11T01:03:59;6.80;62.70
9425;DHT22;17139;52.140;11.636;2022-11-11T01:06:27;6.80;62.90
9425;DHT22;17139;52.140;11.636;2022-11-11T01:08:54;6.80;62.90
9425;DHT22;17139;52.140;11.636;2022-11-11T01:11:22;6.70;62.80
9425;DHT22;17139;52.140;11.636;2022-11-11T01:13:50;6.70;62.90
9425;DHT22;17139;52.140;11.636;2022-11-11T01:16:20;7.30;62.40
9425;DHT22;17139;52.140;11.636;2022-11-11T01:18:47;7.20;61.60
9425;DHT22;17139;52.140;11.636;2022-11-11T01:21:17;7.80;61.50
9425;DHT22;17139;52.140;11.636;2022-11-11T01:23:45;7.50;61.20
9425;DHT22;17139;52.140;11.636;2022-11-11T01:26:15;7.30;61.70
9425;DHT22;17139;52.140;11.636;2022-11-11T01:28:43;7.00;62.00
9425;DHT22;17139;52.140;11.636;2022-11-11T01:31:12;6.90;62.30
9425;DHT22;17139;52.140;11.636;2022-11-11T01:33:40;6.80;62.60
9425;DHT22;17139;52.140;11.636;2022-11-11T01:36:09;6.80;62.70
9425;DHT22;17139;52.140;11.636;2022-11-11T01:38:38;6.70;62.70
9425;DHT22;17139;52.140;11.636;2022-11-11T01:41:09;6.70;62.80
9425;DHT22;17139;52.140;11.636;2022-11-11T01:43:54;6.60;62.80
9425;DHT22;17139;52.140;11.636;2022-11-11T01:46:27;7.20;62.70
9425;DHT22;17139;52.140;11.636;2022-11-11T01:49:01;7.10;62.00
9425;DHT22;17139;52.140;11.636;2022-11-11T01:51:49;6.90;62.30
9425;DHT22;17139;52.140;11.636;2022-11-11T01:54:24;6.80;62.60
9425;DHT22;17139;52.140;11.636;2022-11-11T01:56:56;6.70;62.70
9425;DHT22;17139;52.140;11.636;2022-11-11T01:59:27;6.60;62.80
9425;DHT22;17139;52.140;11.636;2022-11-11T02:01:56;6.60;62.90
9425;DHT22;17139;52.140;11.636;2022-11-11T02:04:24;6.60;62.90
9425;DHT22;17139;52.140;11.636;2022-11-11T02:07:21;6.50;62.90
9425;DHT22;17139;52.140;11.636;2022-11-11T02:09:51;6.50;62.90
9425;DHT22;17139;52.140;11.636;2022-11-11T02:12:18;6.50;62.90
9425;DHT22;17139;52.140;11.636;2022-11-11T02:15:04;6.50;62.90
9425;DHT22;17139;52.140;11.636;2022-11-11T02:17:32;6.50;63.00
9425;DHT22;17139;52.140;11.636;2022-11-11T02:20:00;6.50;63.50
9425;DHT22;17139;52.140;11.636;2022-11-11T02:22:36;6.40;62.70
9425;DHT22;17139;52.140;11.636;2022-11-11T02:25:09;6.40;62.80
9425;DHT22;17139;52.140;11.636;2022-11-11T02:27:39;6.40;62.80
9425;DHT22;17139;52.140;11.636;2022-11-11T02:30:09;6.40;62.90
9425;DHT22;17139;52.140;11.636;2022-11-11T02:32:41;6.30;63.90
9425;DHT22;17139;52.140;11.636;2022-11-11T02:35:13;6.30;64.00
9425;DHT22;17139;52.140;11.636;2022-11-11T02:37:42;6.30;64.00
9425;DHT22;17139;52.140;11.636;2022-11-11T02:40:14;6.30;64.00
9425;DHT22;17139;52.140;11.636;2022-11-11T02:42:42;6.30;64.10
9425;DHT22;17139;52.140;11.636;2022-11-11T02:45:09;6.20;63.90
9425;DHT22;17139;52.140;11.636;2022-11-11T02:47:36;6.10;64.60
9425;DHT22;17139;52.140;11.636;2022-11-11T02:50:04;6.20;64.00
9425;DHT22;17139;52.140;11.636;2022-11-11T02:52:32;6.90;62.40
9425;DHT22;17139;52.140;11.636;2022-11-11T02:54:59;6.70;61.60
9425;DHT22;17139;52.140;11.636;2022-11-11T02:57:27;6.50;61.80
9425;DHT22;17139;52.140;11.636;2022-11-11T02:59:56;6.40;62.20
9425;DHT22;17139;52.140;11.636;2022-11-11T03:02:24;6.30;63.40
9425;DHT22;17139;52.140;11.636;2022-11-11T03:04:52;6.30;63.60
9425;DHT22;17139;52.140;11.636;2022-11-11T03:07:19;6.20;63.70
9425;DHT22;17139;52.140;11.636;2022-11-11T03:09:46;6.20;63.70
9425;DHT22;17139;52.140;11.636;2022-11-11T03:12:14;6.10;63.70
9425;DHT22;17139;52.140;11.636;2022-11-11T03:14:42;6.10;63.70
9425;DHT22;17139;52.140;11.636;2022-11-11T03:17:09;6.50;62.70
9425;DHT22;17139;52.140;11.636;2022-11-11T03:19:54;6.50;61.90
9425;DHT22;17139;52.140;11.636;2022-11-11T03:22:42;7.30;61.10
9425;DHT22;17139;52.140;11.636;2022-11-11T03:25:08;7.00;60.90
9425;DHT22;17139;52.140;11.636;2022-11-11T03:27:52;6.70;61.50
9425;DHT22;17139;52.140;11.636;2022-11-11T03:30:21;6.50;61.80
9425;DHT22;17139;52.140;11.636;2022-11-11T03:32:48;6.40;62.20
9425;DHT22;17139;52.140;11.636;2022-11-11T03:35:15;6.30;63.40
9425;DHT22;17139;52.140;11.636;2022-11-11T03:37:42;6.30;63.60
9425;DHT22;17139;52.140;11.636;2022-11-11T03:40:27;6.20;63.60
9425;DHT22;17139;52.140;11.636;2022-11-11T03:42:54;6.20;63.80
9425;DHT22;17139;52.140;11.636;2022-11-11T03:45:22;6.30;64.00
9425;DHT22;17139;52.140;11.636;2022-11-11T03:47:52;6.30;63.50
9425;DHT22;17139;52.140;11.636;2022-11-11T03:50:19;6.30;63.60
9425;DHT22;17139;52.140;11.636;2022-11-11T03:52:46;6.20;63.60
9425;DHT22;17139;52.140;11.636;2022-11-11T03:55:14;6.20;63.60
9425;DHT22;17139;52.140;11.636;2022-11-11T03:57:43;6.20;63.60
9425;DHT22;17139;52.140;11.636;2022-11-11T04:00:12;6.20;63.70
9425;DHT22;17139;52.140;11.636;2022-11-11T04:02:40;6.20;63.70
9425;DHT22;17139;52.140;11.636;2022-11-11T04:05:25;6.20;63.60
9425;DHT22;17139;52.140;11.636;2022-11-11T04:08:11;6.10;63.50
9425;DHT22;17139;52.140;11.636;2022-11-11T04:10:57;6.10;63.60
9425;DHT22;17139;52.140;11.636;2022-11-11T04:13:27;6.10;63.60
9425;DHT22;17139;52.140;11.636;2022-11-11T04:16:12;6.10;63.70
9425;DHT22;17139;52.140;11.636;2022-11-11T04:18:41;6.10;63.60
9425;DHT22;17139;52.140;11.636;2022-11-11T04:21:26;6.10;63.60
9425;DHT22;17139;52.140;11.636;2022-11-11T04:24:13;6.50;62.70
9425;DHT22;17139;52.140;11.636;2022-11-11T04:26:59;6.50;61.80
9425;DHT22;17139;52.140;11.636;2022-11-11T04:29:27;6.40;62.10
9425;DHT22;17139;52.140;11.636;2022-11-11T04:31:54;6.30;63.30
9425;DHT22;17139;52.140;11.636;2022-11-11T04:34:40;6.30;63.40
9425;DHT22;17139;52.140;11.636;2022-11-11T04:37:07;6.30;63.40
9425;DHT22;17139;52.140;11.636;2022-11-11T04:39:34;6.30;63.40
9425;DHT22;17139;52.140;11.636;2022-11-11T04:42:19;6.30;63.40
9425;DHT22;17139;52.140;11.636;2022-11-11T04:44:46;6.40;62.40
9425;DHT22;17139;52.140;11.636;2022-11-11T04:47:30;6.40;62.30
9425;DHT22;17139;52.140;11.636;2022-11-11T04:49:59;6.50;62.50
9425;DHT22;17139;52.140;11.636;2022-11-11T04:52:26;6.60;62.20
9425;DHT22;17139;52.140;11.636;2022-11-11T04:54:54;6.50;62.10
9425;DHT22;17139;52.140;11.636;2022-11-11T04:57:40;6.50;62.20
9425;DHT22;17139;52.140;11.636;2022-11-11T05:00:09;6.50;62.30
9425;DHT22;17139;52.140;11.636;2022-11-11T05:02:37;6.50;62.30
9425;DHT22;17139;52.140;11.636;2022-11-11T05:05:24;6.50;62.30
9425;DHT22;17139;52.140;11.636;2022-11-11T05:07:51;6.50;62.40
9425;DHT22;17139;52.140;11.636;2022-11-11T05:10:36;6.50;62.30
9425;DHT22;17139;52.140;11.636;2022-11-11T05:13:03;6.50;62.40
9425;DHT22;17139;52.140;11.636;2022-11-11T05:15:53;6.50;62.40
9425;DHT22;17139;52.140;11.636;2022-11-11T05:18:38;6.40;62.30
9425;DHT22;17139;52.140;11.636;2022-11-11T05:21:27;6.40;62.40
9425;DHT22;17139;52.140;11.636;2022-11-11T05:23:55;6.40;62.50
9425;DHT22;17139;52.140;11.636;2022-11-11T05:26:40;6.40;62.50
9425;DHT22;17139;52.140;11.636;2022-11-11T05:29:07;6.40;62.40
9425;DHT22;17139;52.140;11.636;2022-11-11T05:31:34;6.40;62.50
9425;DHT22;17139;52.140;11.636;2022-11-11T05:34:01;6.30;63.30
9425;DHT22;17139;52.140;11.636;2022-11-11T05:36:30;6.40;62.60
9425;DHT22;17139;52.140;11.636;2022-11-11T05:38:58;6.40;62.20
9425;DHT22;17139;52.140;11.636;2022-11-11T05:41:25;6.40;62.30
9425;DHT22;17139;52.140;11.636;2022-11-11T05:43:52;6.30;63.40
9425;DHT22;17139;52.140;11.636;2022-11-11T05:46:19;6.30;63.50
9425;DHT22;17139;52.140;11.636;2022-11-11T05:48:46;6.30;63.50
9425;DHT22;17139;52.140;11.636;2022-11-11T05:51:32;6.40;62.50
9425;DHT22;17139;52.140;11.636;2022-11-11T05:53:59;6.40;62.10
9425;DHT22;17139;52.140;11.636;2022-11-11T05:56:26;6.60;62.30
9425;DHT22;17139;52.140;11.636;2022-11-11T05:58:54;6.50;61.80
9425;DHT22;17139;52.140;11.636;2022-11-11T06:01:21;6.40;61.70
9425;DHT22;17139;52.140;11.636;2022-11-11T06:03:48;6.40;62.10
9425;DHT22;17139;52.140;11.636;2022-11-11T06:06:15;6.30;63.20
9425;DHT22;17139;52.140;11.636;2022-11-11T06:08:43;6.30;63.30
9425;DHT22;17139;52.140;11.636;2022-11-11T06:11:10;6.30;63.40
9425;DHT22;17139;52.140;11.636;2022-11-11T06:13:37;6.20;63.40
9425;DHT22;17139;52.140;11.636;2022-11-11T06:16:05;6.20;63.40
9425;DHT22;17139;52.140;11.636;2022-11-11T06:18:33;6.20;63.50
9425;DHT22;17139;52.140;11.636;2022-11-11T06:21:00;6.30;63.70
9425;DHT22;17139;52.140;11.636;2022-11-11T06:23:28;6.30;63.20
9425;DHT22;17139;52.140;11.636;2022-11-11T06:25:59;6.90;61.70
9425;DHT22;17139;52.140;11.636;2022-11-11T06:28:42;6.80;61.10
9425;DHT22;17139;52.140;11.636;2022-11-11T06:31:11;6.50;61.60
9425;DHT22;17139;52.140;11.636;2022-11-11T06:33:38;6.40;61.70
9425;DHT22;17139;52.140;11.636;2022-11-11T06:36:06;6.30;63.00
9425;DHT22;17139;52.140;11.636;2022-11-11T06:38:33;6.30;63.20
9425;DHT22;17139;52.140;11.636;2022-11-11T06:41:02;6.30;63.30
9425;DHT22;17139;52.140;11.636;2022-11-11T06:43:29;6.20;63.30
9425;DHT22;17139;52.140;11.636;2022-11-11T06:45:56;6.30;63.40
9425;DHT22;17139;52.140;11.636;2022-11-11T06:48:26;6.20;63.40
9425;DHT22;17139;52.140;11.636;2022-11-11T06:50:54;6.20;63.50
9425;DHT22;17139;52.140;11.636;2022-11-11T06:53:21;6.20;63.50
9425;DHT22;17139;52.140;11.636;2022-11-11T06:55:51;7.00;62.00
9425;DHT22;17139;52.140;11.636;2022-11-11T06:58:20;6.90;61.30
9425;DHT22;17139;52.140;11.636;2022-11-11T07:00:48;6.70;61.60
9425;DHT22;17139;52.140;11.636;2022-11-11T07:03:17;6.60;61.90
9425;DHT22;17139;52.140;11.636;2022-11-11T07:05:44;6.60;62.00
9425;DHT22;17139;52.140;11.636;2022-11-11T07:08:13;6.60;62.10
9425;DHT22;17139;52.140;11.636;2022-11-11T07:10:43;6.60;62.20
9425;DHT22;17139;52.140;11.636;2022-11-11T07:13:11;6.60;62.10
9425;DHT22;17139;52.140;11.636;2022-11-11T07:15:40;6.60;62.10
9425;DHT22;17139;52.140;11.636;2022-11-11T07:18:08;6.70;62.10
9425;DHT22;17139;52.140;11.636;2022-11-11T07:20:35;6.90;62.30
9425;DHT22;17139;52.140;11.636;2022-11-11T07:23:03;7.00;61.80
9425;DHT22;17139;52.140;11.636;2022-11-11T07:25:30;7.00;61.90
9425;DHT22;17139;52.140;11.636;2022-11-11T07:27:57;7.00;61.90
9425;DHT22;17139;52.140;11.636;2022-11-11T07:30:25;7.00;61.90
9425;DHT22;17139;52.140;11.636;2022-11-11T07:32:53;7.10;61.90
9425;DHT22;17139;52.140;11.636;2022-11-11T07:35:21;7.10;61.90
9425;DHT22;17139;52.140;11.636;2022-11-11T07:37:48;7.20;61.90
9425;DHT22;17139;52.140;11.636;2022-11-11T07:40:17;7.20;61.80
9425;DHT22;17139;52.140;11.636;2022-11-11T07:42:45;7.30;61.80
9425;DHT22;17139;52.140;11.636;2022-11-11T07:45:13;7.30;61.70
9425;DHT22;17139;52.140;11.636;2022-11-11T07:47:42;7.40;61.80
9425;DHT22;17139;52.140;11.636;2022-11-11T07:50:11;8.00;61.50
9425;DHT22;17139;52.140;11.636;2022-11-11T07:52:38;8.00;60.90
9425;DHT22;17139;52.140;11.636;2022-11-11T07:55:06;7.90;60.90
9425;DHT22;17139;52.140;11.636;2022-11-11T07:57:34;7.90;61.20
9425;DHT22;17139;52.140;11.636;2022-11-11T08:00:02;8.00;61.30
9425;DHT22;17139;52.140;11.636;2022-11-11T08:02:29;7.90;61.20
9425;DHT22;17139;52.140;11.636;2022-11-11T08:04:56;8.00;61.30
9425;DHT22;17139;52.140;11.636;2022-11-11T08:07:25;8.10;61.30
9425;DHT22;17139;52.140;11.636;2022-11-11T08:09:52;8.10;61.30
9425;DHT22;17139;52.140;11.636;2022-11-11T08:12:19;8.10;61.30
9425;DHT22;17139;52.140;11.636;2022-11-11T08:15:04;9.00;60.10
9425;DHT22;17139;52.140;11.636;2022-11-11T08:17:36;8.80;60.00
9425;DHT22;17139;52.140;11.636;2022-11-11T08:20:04;8.60;60.40
9425;DHT22;17139;52.140;11.636;2022-11-11T08:22:36;8.60;60.80
9425;DHT22;17139;52.140;11.636;2022-11-11T08:25:05;8.50;60.80
9425;DHT22;17139;52.140;11.636;2022-11-11T08:27:32;8.60;61.10
9425;DHT22;17139;52.140;11.636;2022-11-11T08:30:00;8.50;61.00
9425;DHT22;17139;52.140;11.636;2022-11-11T08:32:27;8.50;61.10
9425;DHT22;17139;52.140;11.636;2022-11-11T08:34:54;8.50;61.10
9425;DHT22;17139;52.140;11.636;2022-11-11T08:37:21;8.60;61.20
9425;DHT22;17139;52.140;11.636;2022-11-11T08:39:50;8.60;61.20
9425;DHT22;17139;52.140;11.636;2022-11-11T08:42:17;8.60;61.10
9425;DHT22;17139;52.140;11.636;2022-11-11T08:44:45;8.60;61.20
9425;DHT22;17139;52.140;11.636;2022-11-11T08:47:12;8.60;61.10
9425;DHT22;17139;52.140;11.636;2022-11-11T08:49:39;9.00;60.90
9425;DHT22;17139;52.140;11.636;2022-11-11T08:52:06;9.10;60.60
9425;DHT22;17139;52.140;11.636;2022-11-11T08:54:33;9.00;60.70
9425;DHT22;17139;52.140;11.636;2022-11-11T08:57:02;9.00;60.80
9425;DHT22;17139;52.140;11.636;2022-11-11T08:59:29;9.10;61.00
9425;DHT22;17139;52.140;11.636;2022-11-11T09:01:56;9.10;61.00
9425;DHT22;17139;52.140;11.636;2022-11-11T09:04:23;9.10;60.90
9425;DHT22;17139;52.140;11.636;2022-11-11T09:06:50;9.10;60.90
9425;DHT22;17139;52.140;11.636;2022-11-11T09:09:17;9.20;60.90
9425;DHT22;17139;52.140;11.636;2022-11-11T09:11:44;9.20;60.90
9425;DHT22;17139;52.140;11.636;2022-11-11T09:14:13;9.30;61.00
9425;DHT22;17139;52.140;11.636;2022-11-11T09:16:40;10.00;59.80
9425;DHT22;17139;52.140;11.636;2022-11-11T09:19:07;9.90;59.80
9425;DHT22;17139;52.140;11.636;2022-11-11T09:21:34;10.50;59.10
9425;DHT22;17139;52.140;11.636;2022-11-11T09:24:01;10.20;59.20
9425;DHT22;17139;52.140;11.636;2022-11-11T09:26:28;10.00;59.70
9425;DHT22;17139;52.140;11.636;2022-11-11T09:28:55;9.90;60.10
9425;DHT22;17139;52.140;11.636;2022-11-11T09:31:24;9.90;60.30
9425;DHT22;17139;52.140;11.636;2022-11-11T09:33:51;9.80;60.30
9425;DHT22;17139;52.140;11.636;2022-11-11T09:36:19;9.90;60.70
9425;DHT22;17139;52.140;11.636;2022-11-11T09:38:46;9.90;60.70
9425;DHT22;17139;52.140;11.636;2022-11-11T09:41:19;9.90;60.70
9425;DHT22;17139;52.140;11.636;2022-11-11T09:43:54;10.00;60.80
9425;DHT22;17139;52.140;11.636;2022-11-11T09:46:42;10.10;60.80
9425;DHT22;17139;52.140;11.636;2022-11-11T09:49:30;10.40;60.30
9425;DHT22;17139;52.140;11.636;2022-11-11T09:52:04;10.50;60.10
9425;DHT22;17139;52.140;11.636;2022-11-11T09:54:36;10.40;60.20
9425;DHT22;17139;52.140;11.636;2022-11-11T09:57:11;10.40;60.40
9425;DHT22;17139;52.140;11.636;2022-11-11T09:59:44;10.40;60.40
9425;DHT22;17139;52.140;11.636;2022-11-11T10:02:19;10.40;60.50
9425;DHT22;17139;52.140;11.636;2022-11-11T10:04:56;10.50;60.50
9425;DHT22;17139;52.140;11.636;2022-11-11T10:07:33;10.50;60.60
9425;DHT22;17139;52.140;11.636;2022-11-11T10:10:07;10.50;60.60
9425;DHT22;17139;52.140;11.636;2022-11-11T10:12:41;10.50;60.60
9425;DHT22;17139;52.140;11.636;2022-11-11T10:15:12;10.50;60.70
9425;DHT22;17139;52.140;11.636;2022-11-11T10:17:57;10.50;60.90
9425;DHT22;17139;52.140;11.636;2022-11-11T10:20:29;10.50;60.90
9425;DHT22;17139;52.140;11.636;2022-11-11T10:23:02;10.40;60.80
9425;DHT22;17139;52.140;11.636;2022-11-11T10:25:30;10.40;60.80
9425;DHT22;17139;52.140;11.636;2022-11-11T10:27:59;10.40;60.80
9425;DHT22;17139;52.140;11.636;2022-11-11T10:30:29;10.30;60.90
9425;DHT22;17139;52.140;11.636;2022-11-11T10:33:00;10.30;61.10
9425;DHT22;17139;52.140;11.636;2022-11-11T10:35:30;10.30;61.10
9425;DHT22;17139;52.140;11.636;2022-11-11T10:38:12;10.30;61.30
9425;DHT22;17139;52.140;11.636;2022-11-11T10:40:45;10.30;61.30
9425;DHT22;17139;52.140;11.636;2022-11-11T10:43:22;10.20;61.40
9425;DHT22;17139;52.140;11.636;2022-11-11T10:45:57;10.30;61.40
9425;DHT22;17139;52.140;11.636;2022-11-11T10:48:36;10.30;61.60
9425;DHT22;17139;52.140;11.636;2022-11-11T10:51:05;10.30;61.50
9425;DHT22;17139;52.140;11.636;2022-11-11T10:53:36;10.30;61.60
9425;DHT22;17139;52.140;11.636;2022-11-11T10:56:12;10.60;61.00
9425;DHT22;17139;52.140;11.636;2022-11-11T10:58:45;10.60;61.00
9425;DHT22;17139;52.140;11.636;2022-11-11T11:01:19;10.40;61.10
9425;DHT22;17139;52.140;11.636;2022-11-11T11:03:54;10.40;61.40
9425;DHT22;17139;52.140;11.636;2022-11-11T11:06:25;10.40;61.60
9425;DHT22;17139;52.140;11.636;2022-11-11T11:08:56;10.30;61.60
9425;DHT22;17139;52.140;11.636;2022-11-11T11:11:29;10.30;61.70
9425;DHT22;17139;52.140;11.636;2022-11-11T11:14:00;10.30;61.70
9425;DHT22;17139;52.140;11.636;2022-11-11T11:16:31;10.30;61.80
9425;DHT22;17139;52.140;11.636;2022-11-11T11:19:21;10.30;61.80
9425;DHT22;17139;52.140;11.636;2022-11-11T11:21:50;10.30;61.70
9425;DHT22;17139;52.140;11.636;2022-11-11T11:24:20;10.80;61.30
9425;DHT22;17139;52.140;11.636;2022-11-11T11:26:49;10.70;61.00
9425;DHT22;17139;52.140;11.636;2022-11-11T11:29:24;10.60;61.30
9425;DHT22;17139;52.140;11.636;2022-11-11T11:31:52;10.60;61.50
9425;DHT22;17139;52.140;11.636;2022-11-11T11:34:21;10.50;61.60
9425;DHT22;17139;52.140;11.636;2022-11-11T11:36:58;10.50;61.70
9425;DHT22;17139;52.140;11.636;2022-11-11T11:39:34;10.60;61.70
9425;DHT22;17139;52.140;11.636;2022-11-11T11:42:01;10.60;61.80
9425;DHT22;17139;52.140;11.636;2022-11-11T11:44:29;10.60;61.80
9425;DHT22;17139;52.140;11.636;2022-11-11T11:47:08;10.60;61.70
9425;DHT22;17139;52.140;11.636;2022-11-11T11:49:52;10.80;61.80
9425;DHT22;17139;52.140;11.636;2022-11-11T11:52:32;10.80;61.70
9425;DHT22;17139;52.140;11.636;2022-11-11T11:55:05;11.40;60.90
9425;DHT22;17139;52.140;11.636;2022-11-11T11:57:44;11.40;60.70
9425;DHT22;17139;52.140;11.636;2022-11-11T12:00:19;11.40;61.00
9425;DHT22;17139;52.140;11.636;2022-11-11T12:05:46;11.80;60.20
9425;DHT22;17139;52.140;11.636;2022-11-11T12:08:31;11.70;60.60
9425;DHT22;17139;52.140;11.636;2022-11-11T12:11:08;11.70;60.70
9425;DHT22;17139;52.140;11.636;2022-11-11T12:13:45;11.70;60.80
9425;DHT22;17139;52.140;11.636;2022-11-11T12:16:23;12.40;59.10
9425;DHT22;17139;52.140;11.636;2022-11-11T12:19:05;12.70;58.70
9425;DHT22;17139;52.140;11.636;2022-11-11T12:21:40;12.50;59.40
9425;DHT22;17139;52.140;11.636;2022-11-11T12:24:23;12.30;59.80
9425;DHT22;17139;52.140;11.636;2022-11-11T12:26:56;12.30;60.10
9425;DHT22;17139;52.140;11.636;2022-11-11T12:29:37;12.30;60.30
9425;DHT22;17139;52.140;11.636;2022-11-11T12:32:29;12.90;58.50
9425;DHT22;17139;52.140;11.636;2022-11-11T12:35:09;12.70;59.20
9425;DHT22;17139;52.140;11.636;2022-11-11T12:37:47;12.60;59.70
9425;DHT22;17139;52.140;11.636;2022-11-11T12:40:23;12.50;60.10
9425;DHT22;17139;52.140;11.636;2022-11-11T12:43:06;12.50;60.30
9425;DHT22;17139;52.140;11.636;2022-11-11T12:45:39;12.50;60.30
9425;DHT22;17139;52.140;11.636;2022-11-11T12:48:20;13.00;58.50
9425;DHT22;17139;52.140;11.636;2022-11-11T12:50:59;12.90;59.20
9425;DHT22;17139;52.140;11.636;2022-11-11T12:53:37;12.90;59.70
9425;DHT22;17139;52.140;11.636;2022-11-11T12:56:18;12.80;59.80
9425;DHT22;17139;52.140;11.636;2022-11-11T12:58:52;12.90;60.00
9425;DHT22;17139;52.140;11.636;2022-11-11T13:01:27;12.90;60.00
9425;DHT22;17139;52.140;11.636;2022-11-11T13:04:27;13.40;58.40
9425;DHT22;17139;52.140;11.636;2022-11-11T13:07:07;13.30;59.00
9425;DHT22;17139;52.140;11.636;2022-11-11T13:10:07;13.90;56.50
9425;DHT22;17139;52.140;11.636;2022-11-11T13:12:43;14.00;56.30
9425;DHT22;17139;52.140;11.636;2022-11-11T13:15:15;13.70;57.80
9425;DHT22;17139;52.140;11.636;2022-11-11T13:17:43;13.60;58.40
9425;DHT22;17139;52.140;11.636;2022-11-11T13:20:18;13.50;58.70
9425;DHT22;17139;52.140;11.636;2022-11-11T13:22:48;13.50;58.80
9425;DHT22;17139;52.140;11.636;2022-11-11T13:25:20;14.00;56.40
9425;DHT22;17139;52.140;11.636;2022-11-11T13:27:50;13.90;57.80
9425;DHT22;17139;52.140;11.636;2022-11-11T13:30:48;14.50;54.90
9425;DHT22;17139;52.140;11.636;2022-11-11T13:33:20;14.20;56.80
9425;DHT22;17139;52.140;11.636;2022-11-11T13:35:51;13.90;57.90
9425;DHT22;17139;52.140;11.636;2022-11-11T13:38:26;13.70;58.40
9425;DHT22;17139;52.140;11.636;2022-11-11T13:40:57;13.70;58.70
9425;DHT22;17139;52.140;11.636;2022-11-11T13:43:29;13.60;59.00
9425;DHT22;17139;52.140;11.636;2022-11-11T13:45:59;13.60;59.00
9425;DHT22;17139;52.140;11.636;2022-11-11T13:48:28;13.70;58.20
9425;DHT22;17139;52.140;11.636;2022-11-11T13:51:23;13.70;58.70
9425;DHT22;17139;52.140;11.636;2022-11-11T13:53:51;14.40;56.10
9425;DHT22;17139;52.140;11.636;2022-11-11T13:56:25;14.00;57.50
9425;DHT22;17139;52.140;11.636;2022-11-11T13:58:54;13.80;58.10
9425;DHT22;17139;52.140;11.636;2022-11-11T14:01:22;13.60;58.70
9425;DHT22;17139;52.140;11.636;2022-11-11T14:04:02;13.50;59.00
9425;DHT22;17139;52.140;11.636;2022-11-11T14:06:54;13.50;59.00
9425;DHT22;17139;52.140;11.636;2022-11-11T14:09:50;13.40;59.20
9425;DHT22;17139;52.140;11.636;2022-11-11T14:12:41;13.30;59.50
9425;DHT22;17139;52.140;11.636;2022-11-11T14:15:33;13.30;59.70
9425;DHT22;17139;52.140;11.636;2022-11-11T14:18:01;14.00;57.10
9425;DHT22;17139;52.140;11.636;2022-11-11T14:20:36;13.60;58.10
9425;DHT22;17139;52.140;11.636;2022-11-11T14:23:26;13.50;58.70
9425;DHT22;17139;52.140;11.636;2022-11-11T14:26:27;13.30;59.00
9425;DHT22;17139;52.140;11.636;2022-11-11T14:28:58;13.20;59.40
9425;DHT22;17139;52.140;11.636;2022-11-11T14:31:53;13.00;59.70
9425;DHT22;17139;52.140;11.636;2022-11-11T14:34:35;13.00;59.80
9425;DHT22;17139;52.140;11.636;2022-11-11T14:37:17;12.80;60.00
9425;DHT22;17139;52.140;11.636;2022-11-11T14:39:51;12.80;60.10
9425;DHT22;17139;52.140;11.636;2022-11-11T14:42:44;12.80;59.80
9425;DHT22;17139;52.140;11.636;2022-11-11T14:48:51;12.60;60.10
9425;DHT22;17139;52.140;11.636;2022-11-11T14:51:53;12.40;60.40
9425;DHT22;17139;52.140;11.636;2022-11-11T14:54:33;12.30;60.40
9425;DHT22;17139;52.140;11.636;2022-11-11T14:57:05;12.20;60.70
9425;DHT22;17139;52.140;11.636;2022-11-11T14:59:34;13.00;57.80
9425;DHT22;17139;52.140;11.636;2022-11-11T15:02:01;12.80;58.40
9425;DHT22;17139;52.140;11.636;2022-11-11T15:04:37;13.10;57.20
9425;DHT22;17139;52.140;11.636;2022-11-11T15:07:16;12.80;58.10
9425;DHT22;17139;52.140;11.636;2022-11-11T15:10:07;13.30;56.10
9425;DHT22;17139;52.140;11.636;2022-11-11T15:12:48;12.90;57.80
9425;DHT22;17139;52.140;11.636;2022-11-11T15:15:23;12.50;58.80
9425;DHT22;17139;52.140;11.636;2022-11-11T15:18:00;12.20;59.30
9425;DHT22;17139;52.140;11.636;2022-11-11T15:20:45;12.00;59.80
9425;DHT22;17139;52.140;11.636;2022-11-11T15:23:24;11.90;60.10
9425;DHT22;17139;52.140;11.636;2022-11-11T15:25:59;11.70;60.40
9425;DHT22;17139;52.140;11.636;2022-11-11T15:28:45;11.50;60.50
9425;DHT22;17139;52.140;11.636;2022-11-11T15:31:22;12.00;58.90
9425;DHT22;17139;52.140;11.636;2022-11-11T15:33:57;11.70;59.60
9425;DHT22;17139;52.140;11.636;2022-11-11T15:36:41;11.90;58.80
9425;DHT22;17139;52.140;11.636;2022-11-11T15:39:13;11.70;59.30
9425;DHT22;17139;52.140;11.636;2022-11-11T15:41:42;11.40;59.90
9425;DHT22;17139;52.140;11.636;2022-11-11T15:44:17;11.30;60.30
9425;DHT22;17139;52.140;11.636;2022-11-11T15:46:45;11.10;60.50
9425;DHT22;17139;52.140;11.636;2022-11-11T15:49:14;11.00;60.80
9425;DHT22;17139;52.140;11.636;2022-11-11T15:52:03;10.90;60.90
9425;DHT22;17139;52.140;11.636;2022-11-11T15:54:32;10.80;61.10
9425;DHT22;17139;52.140;11.636;2022-11-11T15:57:14;10.70;61.00
9425;DHT22;17139;52.140;11.636;2022-11-11T15:59:41;11.20;59.70
9425;DHT22;17139;52.140;11.636;2022-11-11T16:02:18;11.00;60.00
9425;DHT22;17139;52.140;11.636;2022-11-11T16:04:46;11.60;58.70
9425;DHT22;17139;52.140;11.636;2022-11-11T16:07:20;11.20;59.20
9425;DHT22;17139;52.140;11.636;2022-11-11T16:09:49;10.90;59.90
9425;DHT22;17139;52.140;11.636;2022-11-11T16:12:19;10.80;60.50
9425;DHT22;17139;52.140;11.636;2022-11-11T16:14:50;10.60;60.90
9425;DHT22;17139;52.140;11.636;2022-11-11T16:17:20;10.50;61.00
9425;DHT22;17139;52.140;11.636;2022-11-11T16:19:48;10.40;61.30
9425;DHT22;17139;52.140;11.636;2022-11-11T16:22:20;10.30;61.40